sensor_id;sensor_type;location;lat;lon;timestamp;temperature;humidity
5429;DHT22;2737;52.386;9.980;2023-02-08T00:00:52;-3.10;99.90
5429;DHT22;2737;52.386;9.980;2023-02-08T00:03:20;-3.20;99.90
5429;DHT22;2737;52.386;9.980;2023-02-08T00:05:48;-3.10;99.90
5429;DHT22;2737;52.386;9.980;2023-02-08T00:08:15;-3.20;99.90
5429;DHT22;2737;52.386;9.980;2023-02-08T00:10:43;-3.20;99.90
5429;DHT22;2737;52.386;9.980;2023-02-08T00:13:10;-3.20;99.90
5429;DHT22;2737;52.386;9.980;2023-02-08T00:15:40;-3.30;99.90
5429;DHT22;2737;52.386;9.980;2023-02-08T00:18:07;-3.30;99.90
5429;DHT22;2737;52.386;9.980;2023-02-08T00:20:37;-3.30;99.90
5429;DHT22;2737;52.386;9.980;2023-02-08T00:23:05;-3.30;99.90
5429;DHT22;2737;52.386;9.980;2023-02-08T00:25:32;-3.30;99.90
5429;DHT22;2737;52.386;9.980;2023-02-08T00:27:59;-3.30;99.90
5429;DHT22;2737;52.386;9.980;2023-02-08T00:30:26;-3.30;99.90
5429;DHT22;2737;52.386;9.980;2023-02-08T00:32:53;-3.40;99.90
5429;DHT22;2737;52.386;9.980;2023-02-08T00:35:20;-3.40;99.90
5429;DHT22;2737;52.386;9.980;2023-02-08T00:37:49;-3.40;99.90
5429;DHT22;2737;52.386;9.980;2023-02-08T00:40:16;-3.50;99.90
5429;DHT22;2737;52.386;9.980;2023-02-08T00:42:43;-3.50;99.90
5429;DHT22;2737;52.386;9.980;2023-02-08T00:45:10;-3.50;99.90
5429;DHT22;2737;52.386;9.980;2023-02-08T00:47:37;-3.50;99.90
5429;DHT22;2737;52.386;9.980;2023-02-08T00:50:05;-3.50;99.90
5429;DHT22;2737;52.386;9.980;2023-02-08T00:52:32;-3.40;99.90
5429;DHT22;2737;52.386;9.980;2023-02-08T00:55:01;-3.40;99.90
5429;DHT22;2737;52.386;9.980;2023-02-08T00:57:28;-3.40;99.90
5429;DHT22;2737;52.386;9.980;2023-02-08T00:59:55;-3.40;99.90
5429;DHT22;2737;52.386;9.980;2023-02-08T01:02:22;-3.40;99.90
5429;DHT22;2737;52.386;9.980;2023-02-08T01:04:49;-3.40;99.90
5429;DHT22;2737;52.386;9.980;2023-02-08T01:07:16;-3.40;99.90
5429;DHT22;2737;52.386;9.980;2023-02-08T01:09:43;-3.50;99.90
5429;DHT22;2737;52.386;9.980;2023-02-08T01:12:11;-3.50;99.90
5429;DHT22;2737;52.386;9.980;2023-02-08T01:14:39;-3.50;99.90
5429;DHT22;2737;52.386;9.980;2023-02-08T01:17:07;-3.50;99.90
5429;DHT22;2737;52.386;9.980;2023-02-08T01:19:34;-3.50;99.90
5429;DHT22;2737;52.386;9.980;2023-02-08T01:22:01;-3.50;99.90
5429;DHT22;2737;52.386;9.980;2023-02-08T01:24:28;-3.60;99.90
5429;DHT22;2737;52.386;9.980;2023-02-08T01:26:55;-3.60;99.90
5429;DHT22;2737;52.386;9.980;2023-02-08T01:29:24;-3.60;99.90
5429;DHT22;2737;52.386;9.980;2023-02-08T01:31:51;-3.60;99.90
5429;DHT22;2737;52.386;9.980;2023-02-08T01:34:18;-3.70;99.90
5429;DHT22;2737;52.386;9.980;2023-02-08T01:36:45;-3.70;99.90
5429;DHT22;2737;52.386;9.980;2023-02-08T01:39:13;-3.70;99.90
5429;DHT22;2737;52.386;9.980;2023-02-08T01:41:41;-3.70;99.90
5429;DHT22;2737;52.386;9.980;2023-02-08T01:47:11;-4.00;99.90
5429;DHT22;2737;52.386;9.980;2023-02-08T01:49:39;-4.00;99.90
5429;DHT22;2737;52.386;9.980;2023-02-08T01:52:09;-4.00;99.90
5429;DHT22;2737;52.386;9.980;2023-02-08T01:54:42;-3.90;99.90
5429;DHT22;2737;52.386;9.980;2023-02-08T01:57:11;-3.90;99.90
5429;DHT22;2737;52.386;9.980;2023-02-08T01:59:41;-3.90;99.90
5429;DHT22;2737;52.386;9.980;2023-02-08T02:02:13;-3.90;99.90
5429;DHT22;2737;52.386;9.980;2023-02-08T02:04:42;-3.80;99.90
5429;DHT22;2737;52.386;9.980;2023-02-08T02:07:09;-3.80;99.90
5429;DHT22;2737;52.386;9.980;2023-02-08T02:09:41;-3.80;99.90
5429;DHT22;2737;52.386;9.980;2023-02-08T02:12:10;-3.80;99.90
5429;DHT22;2737;52.386;9.980;2023-02-08T02:14:38;-3.90;99.90
5429;DHT22;2737;52.386;9.980;2023-02-08T02:17:06;-3.90;99.90
5429;DHT22;2737;52.386;9.980;2023-02-08T02:19:39;-3.90;99.90
5429;DHT22;2737;52.386;9.980;2023-02-08T02:25:29;-3.90;99.90
5429;DHT22;2737;52.386;9.980;2023-02-08T02:28:18;-3.90;99.90
5429;DHT22;2737;52.386;9.980;2023-02-08T02:33:58;-3.90;99.90
5429;DHT22;2737;52.386;9.980;2023-02-08T02:36:34;-3.80;99.90
5429;DHT22;2737;52.386;9.980;2023-02-08T02:39:13;-3.80;99.90
5429;DHT22;2737;52.386;9.980;2023-02-08T02:41:49;-3.80;99.90
5429;DHT22;2737;52.386;9.980;2023-02-08T02:44:37;-3.80;99.90
5429;DHT22;2737;52.386;9.980;2023-02-08T02:47:11;-3.70;99.90
5429;DHT22;2737;52.386;9.980;2023-02-08T02:49:48;-3.80;99.90
5429;DHT22;2737;52.386;9.980;2023-02-08T02:52:19;-3.80;99.90
5429;DHT22;2737;52.386;9.980;2023-02-08T02:54:52;-3.80;99.90
5429;DHT22;2737;52.386;9.980;2023-02-08T02:57:25;-3.80;99.90
5429;DHT22;2737;52.386;9.980;2023-02-08T02:59:54;-3.80;99.90
5429;DHT22;2737;52.386;9.980;2023-02-08T03:02:21;-3.80;99.90
5429;DHT22;2737;52.386;9.980;2023-02-08T03:04:54;-3.80;99.90
5429;DHT22;2737;52.386;9.980;2023-02-08T03:07:46;-3.80;99.90
5429;DHT22;2737;52.386;9.980;2023-02-08T03:10:24;-3.90;99.90
5429;DHT22;2737;52.386;9.980;2023-02-08T03:13:00;-3.90;99.90
5429;DHT22;2737;52.386;9.980;2023-02-08T03:15:36;-3.90;99.90
5429;DHT22;2737;52.386;9.980;2023-02-08T03:18:17;-3.90;99.90
5429;DHT22;2737;52.386;9.980;2023-02-08T03:20:51;-3.90;99.90
5429;DHT22;2737;52.386;9.980;2023-02-08T03:23:22;-3.90;99.90
5429;DHT22;2737;52.386;9.980;2023-02-08T03:26:00;-3.90;99.90
5429;DHT22;2737;52.386;9.980;2023-02-08T03:28:33;-3.80;99.90
5429;DHT22;2737;52.386;9.980;2023-02-08T03:31:06;-3.90;99.90
5429;DHT22;2737;52.386;9.980;2023-02-08T03:33:38;-3.90;99.90
5429;DHT22;2737;52.386;9.980;2023-02-08T03:36:15;-3.80;99.90
5429;DHT22;2737;52.386;9.980;2023-02-08T03:38:47;-3.90;99.90
5429;DHT22;2737;52.386;9.980;2023-02-08T03:41:18;-3.80;99.90
5429;DHT22;2737;52.386;9.980;2023-02-08T03:43:49;-3.80;99.90
5429;DHT22;2737;52.386;9.980;2023-02-08T03:46:21;-3.70;99.90
5429;DHT22;2737;52.386;9.980;2023-02-08T03:48:55;-3.80;99.90
5429;DHT22;2737;52.386;9.980;2023-02-08T03:51:28;-3.80;99.90
5429;DHT22;2737;52.386;9.980;2023-02-08T03:53:56;-3.80;99.90
5429;DHT22;2737;52.386;9.980;2023-02-08T03:56:30;-3.80;99.90
5429;DHT22;2737;52.386;9.980;2023-02-08T03:59:03;-3.80;99.90
5429;DHT22;2737;52.386;9.980;2023-02-08T04:01:36;-3.80;99.90
5429;DHT22;2737;52.386;9.980;2023-02-08T04:04:05;-3.80;99.90
5429;DHT22;2737;52.386;9.980;2023-02-08T04:06:34;-3.80;99.90
5429;DHT22;2737;52.386;9.980;2023-02-08T04:09:01;-3.80;99.90
5429;DHT22;2737;52.386;9.980;2023-02-08T04:11:28;-3.90;99.90
5429;DHT22;2737;52.386;9.980;2023-02-08T04:13:55;-3.90;99.90
5429;DHT22;2737;52.386;9.980;2023-02-08T04:16:22;-3.90;99.90
5429;DHT22;2737;52.386;9.980;2023-02-08T04:18:49;-3.90;99.90
5429;DHT22;2737;52.386;9.980;2023-02-08T04:21:16;-3.80;99.90
5429;DHT22;2737;52.386;9.980;2023-02-08T04:23:44;-3.80;99.90
5429;DHT22;2737;52.386;9.980;2023-02-08T04:26:11;-3.90;99.90
5429;DHT22;2737;52.386;9.980;2023-02-08T04:28:38;-3.90;99.90
5429;DHT22;2737;52.386;9.980;2023-02-08T04:31:05;-3.90;99.90
5429;DHT22;2737;52.386;9.980;2023-02-08T04:33:33;-3.90;99.90
5429;DHT22;2737;52.386;9.980;2023-02-08T04:36:00;-3.90;99.90
5429;DHT22;2737;52.386;9.980;2023-02-08T04:38:27;-4.00;99.90
5429;DHT22;2737;52.386;9.980;2023-02-08T04:40:55;-4.00;99.90
5429;DHT22;2737;52.386;9.980;2023-02-08T04:43:22;-4.10;99.90
5429;DHT22;2737;52.386;9.980;2023-02-08T04:45:49;-4.10;99.90
5429;DHT22;2737;52.386;9.980;2023-02-08T04:48:17;-4.20;99.90
5429;DHT22;2737;52.386;9.980;2023-02-08T04:50:44;-4.10;99.90
5429;DHT22;2737;52.386;9.980;2023-02-08T04:53:12;-4.20;99.90
5429;DHT22;2737;52.386;9.980;2023-02-08T04:55:39;-4.20;99.90
5429;DHT22;2737;52.386;9.980;2023-02-08T04:58:07;-4.20;99.90
5429;DHT22;2737;52.386;9.980;2023-02-08T05:00:34;-4.20;99.90
5429;DHT22;2737;52.386;9.980;2023-02-08T05:03:01;-4.10;99.90
5429;DHT22;2737;52.386;9.980;2023-02-08T05:05:29;-4.20;99.90
5429;DHT22;2737;52.386;9.980;2023-02-08T05:07:57;-4.20;99.90
5429;DHT22;2737;52.386;9.980;2023-02-08T05:10:24;-4.20;99.90
5429;DHT22;2737;52.386;9.980;2023-02-08T05:12:51;-4.10;99.90
5429;DHT22;2737;52.386;9.980;2023-02-08T05:15:20;-4.10;99.90
5429;DHT22;2737;52.386;9.980;2023-02-08T05:17:47;-4.10;99.90
5429;DHT22;2737;52.386;9.980;2023-02-08T05:20:14;-4.20;99.90
5429;DHT22;2737;52.386;9.980;2023-02-08T05:22:41;-4.20;99.90
5429;DHT22;2737;52.386;9.980;2023-02-08T05:25:08;-4.30;99.90
5429;DHT22;2737;52.386;9.980;2023-02-08T05:27:36;-4.30;99.90
5429;DHT22;2737;52.386;9.980;2023-02-08T05:30:04;-4.30;99.90
5429;DHT22;2737;52.386;9.980;2023-02-08T05:32:32;-4.20;99.90
5429;DHT22;2737;52.386;9.980;2023-02-08T05:34:59;-4.20;99.90
5429;DHT22;2737;52.386;9.980;2023-02-08T05:37:26;-4.20;99.90
5429;DHT22;2737;52.386;9.980;2023-02-08T05:39:53;-4.30;99.90
5429;DHT22;2737;52.386;9.980;2023-02-08T05:42:20;-4.20;99.90
5429;DHT22;2737;52.386;9.980;2023-02-08T05:44:47;-4.20;99.90
5429;DHT22;2737;52.386;9.980;2023-02-08T05:47:14;-4.10;99.90
5429;DHT22;2737;52.386;9.980;2023-02-08T05:49:43;-4.10;99.90
5429;DHT22;2737;52.386;9.980;2023-02-08T05:52:10;-4.10;99.90
5429;DHT22;2737;52.386;9.980;2023-02-08T05:54:37;-4.10;99.90
5429;DHT22;2737;52.386;9.980;2023-02-08T05:57:04;-4.10;99.90
5429;DHT22;2737;52.386;9.980;2023-02-08T05:59:32;-4.10;99.90
5429;DHT22;2737;52.386;9.980;2023-02-08T06:01:59;-4.10;99.90
5429;DHT22;2737;52.386;9.980;2023-02-08T06:04:26;-4.10;99.90
5429;DHT22;2737;52.386;9.980;2023-02-08T06:06:54;-4.10;99.90
5429;DHT22;2737;52.386;9.980;2023-02-08T06:09:21;-4.10;99.90
5429;DHT22;2737;52.386;9.980;2023-02-08T06:11:48;-4.10;99.90
5429;DHT22;2737;52.386;9.980;2023-02-08T06:14:15;-4.20;99.90
5429;DHT22;2737;52.386;9.980;2023-02-08T06:16:43;-4.10;99.90
5429;DHT22;2737;52.386;9.980;2023-02-08T06:19:10;-4.10;99.90
5429;DHT22;2737;52.386;9.980;2023-02-08T06:21:37;-4.20;99.90
5429;DHT22;2737;52.386;9.980;2023-02-08T06:24:06;-4.10;99.90
5429;DHT22;2737;52.386;9.980;2023-02-08T06:26:35;-4.20;99.90
5429;DHT22;2737;52.386;9.980;2023-02-08T06:29:03;-4.20;99.90
5429;DHT22;2737;52.386;9.980;2023-02-08T06:31:31;-4.20;99.90
5429;DHT22;2737;52.386;9.980;2023-02-08T06:33:58;-4.20;99.90
5429;DHT22;2737;52.386;9.980;2023-02-08T06:36:25;-4.20;99.90
5429;DHT22;2737;52.386;9.980;2023-02-08T06:38:52;-4.20;99.90
5429;DHT22;2737;52.386;9.980;2023-02-08T06:41:21;-4.20;99.90
5429;DHT22;2737;52.386;9.980;2023-02-08T06:43:48;-4.20;99.90
5429;DHT22;2737;52.386;9.980;2023-02-08T06:46:15;-4.20;99.90
5429;DHT22;2737;52.386;9.980;2023-02-08T06:48:42;-4.20;99.90
5429;DHT22;2737;52.386;9.980;2023-02-08T06:51:09;-4.20;99.90
5429;DHT22;2737;52.386;9.980;2023-02-08T06:53:36;-4.20;99.90
5429;DHT22;2737;52.386;9.980;2023-02-08T06:56:04;-4.20;99.90
5429;DHT22;2737;52.386;9.980;2023-02-08T06:58:32;-4.20;99.90
5429;DHT22;2737;52.386;9.980;2023-02-08T07:00:59;-4.20;99.90
5429;DHT22;2737;52.386;9.980;2023-02-08T07:03:26;-4.20;99.90
5429;DHT22;2737;52.386;9.980;2023-02-08T07:05:53;-4.20;99.90
5429;DHT22;2737;52.386;9.980;2023-02-08T07:08:20;-4.20;99.90
5429;DHT22;2737;52.386;9.980;2023-02-08T07:10:47;-4.20;99.90
5429;DHT22;2737;52.386;9.980;2023-02-08T07:13:14;-4.20;99.90
5429;DHT22;2737;52.386;9.980;2023-02-08T07:15:43;-4.20;99.90
5429;DHT22;2737;52.386;9.980;2023-02-08T07:18:10;-4.20;99.90
5429;DHT22;2737;52.386;9.980;2023-02-08T07:20:37;-4.20;99.90
5429;DHT22;2737;52.386;9.980;2023-02-08T07:23:04;-4.20;99.90
5429;DHT22;2737;52.386;9.980;2023-02-08T07:25:31;-4.20;99.90
5429;DHT22;2737;52.386;9.980;2023-02-08T07:27:58;-4.20;99.90
5429;DHT22;2737;52.386;9.980;2023-02-08T07:30:25;-4.10;99.90
5429;DHT22;2737;52.386;9.980;2023-02-08T07:32:53;-4.10;99.90
5429;DHT22;2737;52.386;9.980;2023-02-08T07:35:20;-4.00;99.90
5429;DHT22;2737;52.386;9.980;2023-02-08T07:37:48;-4.00;99.90
5429;DHT22;2737;52.386;9.980;2023-02-08T07:40:15;-3.90;99.90
5429;DHT22;2737;52.386;9.980;2023-02-08T07:42:42;-3.90;99.90
5429;DHT22;2737;52.386;9.980;2023-02-08T07:45:09;-3.90;99.90
5429;DHT22;2737;52.386;9.980;2023-02-08T07:47:36;-3.80;99.90
5429;DHT22;2737;52.386;9.980;2023-02-08T07:50:05;-3.80;99.90
5429;DHT22;2737;52.386;9.980;2023-02-08T07:52:32;-3.80;99.90
5429;DHT22;2737;52.386;9.980;2023-02-08T07:54:59;-3.70;99.90
5429;DHT22;2737;52.386;9.980;2023-02-08T07:57:26;-3.70;99.90
5429;DHT22;2737;52.386;9.980;2023-02-08T07:59:53;-3.70;99.90
5429;DHT22;2737;52.386;9.980;2023-02-08T08:02:20;-3.60;99.90
5429;DHT22;2737;52.386;9.980;2023-02-08T08:04:48;-3.60;99.90
5429;DHT22;2737;52.386;9.980;2023-02-08T08:07:16;-3.50;99.90
5429;DHT22;2737;52.386;9.980;2023-02-08T08:09:44;-3.50;99.90
5429;DHT22;2737;52.386;9.980;2023-02-08T08:12:11;-3.50;99.90
5429;DHT22;2737;52.386;9.980;2023-02-08T08:14:38;-3.40;99.90
5429;DHT22;2737;52.386;9.980;2023-02-08T08:17:05;-3.40;99.90
5429;DHT22;2737;52.386;9.980;2023-02-08T08:19:32;-3.30;99.90
5429;DHT22;2737;52.386;9.980;2023-02-08T08:21:59;-3.30;99.90
5429;DHT22;2737;52.386;9.980;2023-02-08T08:24:28;-3.20;99.90
5429;DHT22;2737;52.386;9.980;2023-02-08T08:26:56;-3.20;99.90
5429;DHT22;2737;52.386;9.980;2023-02-08T08:29:23;-3.10;99.90
5429;DHT22;2737;52.386;9.980;2023-02-08T08:31:50;-3.10;99.90
5429;DHT22;2737;52.386;9.980;2023-02-08T08:34:17;-3.10;99.90
5429;DHT22;2737;52.386;9.980;2023-02-08T08:36:44;-3.00;99.90
5429;DHT22;2737;52.386;9.980;2023-02-08T08:39:12;-3.00;99.90
5429;DHT22;2737;52.386;9.980;2023-02-08T08:41:40;-2.90;99.90
5429;DHT22;2737;52.386;9.980;2023-02-08T08:44:07;-2.90;99.90
5429;DHT22;2737;52.386;9.980;2023-02-08T08:46:34;-2.90;99.90
5429;DHT22;2737;52.386;9.980;2023-02-08T08:49:01;-2.80;99.90
5429;DHT22;2737;52.386;9.980;2023-02-08T08:51:28;-2.70;99.90
5429;DHT22;2737;52.386;9.980;2023-02-08T08:53:59;-2.60;99.90
5429;DHT22;2737;52.386;9.980;2023-02-08T08:56:27;-2.60;99.90
5429;DHT22;2737;52.386;9.980;2023-02-08T08:58:55;-2.60;99.90
5429;DHT22;2737;52.386;9.980;2023-02-08T09:01:22;-2.50;99.90
5429;DHT22;2737;52.386;9.980;2023-02-08T09:03:49;-2.50;99.90
5429;DHT22;2737;52.386;9.980;2023-02-08T09:06:17;-2.40;99.90
5429;DHT22;2737;52.386;9.980;2023-02-08T09:08:46;-2.40;99.90
5429;DHT22;2737;52.386;9.980;2023-02-08T09:11:14;-2.30;99.90
5429;DHT22;2737;52.386;9.980;2023-02-08T09:13:41;-2.30;99.90
5429;DHT22;2737;52.386;9.980;2023-02-08T09:16:12;-2.20;99.90
5429;DHT22;2737;52.386;9.980;2023-02-08T09:18:40;-2.20;99.90
5429;DHT22;2737;52.386;9.980;2023-02-08T09:21:10;-2.10;99.90
5429;DHT22;2737;52.386;9.980;2023-02-08T09:23:38;-2.10;99.90
5429;DHT22;2737;52.386;9.980;2023-02-08T09:26:07;-2.00;99.90
5429;DHT22;2737;52.386;9.980;2023-02-08T09:28:35;-2.00;99.90
5429;DHT22;2737;52.386;9.980;2023-02-08T09:31:06;-1.90;99.90
5429;DHT22;2737;52.386;9.980;2023-02-08T09:33:35;-1.90;99.90
5429;DHT22;2737;52.386;9.980;2023-02-08T09:36:02;-1.80;99.90
5429;DHT22;2737;52.386;9.980;2023-02-08T09:38:29;-1.80;99.90
5429;DHT22;2737;52.386;9.980;2023-02-08T09:41:10;-1.70;99.90
5429;DHT22;2737;52.386;9.980;2023-02-08T09:43:46;-1.70;99.90
5429;DHT22;2737;52.386;9.980;2023-02-08T09:46:19;-1.60;99.90
5429;DHT22;2737;52.386;9.980;2023-02-08T09:48:50;-1.50;99.90
5429;DHT22;2737;52.386;9.980;2023-02-08T09:51:24;-1.40;99.90
5429;DHT22;2737;52.386;9.980;2023-02-08T09:53:56;-1.40;99.90
5429;DHT22;2737;52.386;9.980;2023-02-08T09:56:28;-1.30;99.90
5429;DHT22;2737;52.386;9.980;2023-02-08T09:58:56;-1.20;99.90
5429;DHT22;2737;52.386;9.980;2023-02-08T10:01:27;-1.10;99.90
5429;DHT22;2737;52.386;9.980;2023-02-08T10:03:59;-1.00;99.90
5429;DHT22;2737;52.386;9.980;2023-02-08T10:06:28;-0.90;99.90
5429;DHT22;2737;52.386;9.980;2023-02-08T10:08:58;-0.90;99.90
5429;DHT22;2737;52.386;9.980;2023-02-08T10:11:40;-0.80;99.90
5429;DHT22;2737;52.386;9.980;2023-02-08T10:17:08;-0.70;99.90
5429;DHT22;2737;52.386;9.980;2023-02-08T10:19:51;-0.60;99.90
5429;DHT22;2737;52.386;9.980;2023-02-08T10:22:28;-0.60;99.90
5429;DHT22;2737;52.386;9.980;2023-02-08T10:25:20;-0.50;99.90
5429;DHT22;2737;52.386;9.980;2023-02-08T10:28:01;-0.40;99.90
5429;DHT22;2737;52.386;9.980;2023-02-08T10:30:37;-0.40;99.90
5429;DHT22;2737;52.386;9.980;2023-02-08T10:33:15;-0.20;99.90
5429;DHT22;2737;52.386;9.980;2023-02-08T10:35:47;-0.20;99.90
5429;DHT22;2737;52.386;9.980;2023-02-08T10:38:24;-0.20;99.90
5429;DHT22;2737;52.386;9.980;2023-02-08T10:40:54;-0.10;99.90
5429;DHT22;2737;52.386;9.980;2023-02-08T10:43:28;-0.10;99.90
5429;DHT22;2737;52.386;9.980;2023-02-08T10:46:04;0.00;99.90
5429;DHT22;2737;52.386;9.980;2023-02-08T10:48:44;0.10;99.90
5429;DHT22;2737;52.386;9.980;2023-02-08T10:51:16;0.20;99.90
5429;DHT22;2737;52.386;9.980;2023-02-08T10:53:44;0.30;99.90
5429;DHT22;2737;52.386;9.980;2023-02-08T10:56:29;0.30;99.90
5429;DHT22;2737;52.386;9.980;2023-02-08T10:59:00;0.30;99.90
5429;DHT22;2737;52.386;9.980;2023-02-08T11:01:30;0.40;99.90
5429;DHT22;2737;52.386;9.980;2023-02-08T11:04:02;0.40;99.90
5429;DHT22;2737;52.386;9.980;2023-02-08T11:06:31;0.50;99.90
5429;DHT22;2737;52.386;9.980;2023-02-08T11:08:58;0.60;99.90
5429;DHT22;2737;52.386;9.980;2023-02-08T11:11:26;0.60;99.90
5429;DHT22;2737;52.386;9.980;2023-02-08T11:14:06;0.70;99.90
5429;DHT22;2737;52.386;9.980;2023-02-08T11:16:33;0.70;99.90
5429;DHT22;2737;52.386;9.980;2023-02-08T11:19:02;0.80;99.90
5429;DHT22;2737;52.386;9.980;2023-02-08T11:21:36;0.80;99.90
5429;DHT22;2737;52.386;9.980;2023-02-08T11:26:52;0.90;99.90
5429;DHT22;2737;52.386;9.980;2023-02-08T11:29:22;1.00;99.90
5429;DHT22;2737;52.386;9.980;2023-02-08T11:31:58;1.10;99.90
5429;DHT22;2737;52.386;9.980;2023-02-08T11:34:27;1.10;99.90
5429;DHT22;2737;52.386;9.980;2023-02-08T11:36:57;1.20;99.90
5429;DHT22;2737;52.386;9.980;2023-02-08T11:39:28;1.10;99.90
5429;DHT22;2737;52.386;9.980;2023-02-08T11:41:58;1.20;99.90
5429;DHT22;2737;52.386;9.980;2023-02-08T11:44:28;1.20;99.90
5429;DHT22;2737;52.386;9.980;2023-02-08T11:46:58;1.30;99.90
5429;DHT22;2737;52.386;9.980;2023-02-08T11:49:31;1.30;99.90
5429;DHT22;2737;52.386;9.980;2023-02-08T11:52:04;1.40;99.90
5429;DHT22;2737;52.386;9.980;2023-02-08T11:54:37;1.30;99.90
5429;DHT22;2737;52.386;9.980;2023-02-08T11:57:16;1.30;99.90
5429;DHT22;2737;52.386;9.980;2023-02-08T11:59:45;1.40;99.90
5429;DHT22;2737;52.386;9.980;2023-02-08T12:02:35;1.50;99.90
5429;DHT22;2737;52.386;9.980;2023-02-08T12:05:04;1.50;99.90
5429;DHT22;2737;52.386;9.980;2023-02-08T12:07:50;1.60;99.90
5429;DHT22;2737;52.386;9.980;2023-02-08T12:10:43;1.60;99.90
5429;DHT22;2737;52.386;9.980;2023-02-08T12:16:29;1.70;99.90
5429;DHT22;2737;52.386;9.980;2023-02-08T12:19:24;1.70;99.90
5429;DHT22;2737;52.386;9.980;2023-02-08T12:21:58;1.80;99.90
5429;DHT22;2737;52.386;9.980;2023-02-08T12:24:35;1.90;99.90
5429;DHT22;2737;52.386;9.980;2023-02-08T12:27:17;1.90;99.90
5429;DHT22;2737;52.386;9.980;2023-02-08T12:29:55;1.90;99.90
5429;DHT22;2737;52.386;9.980;2023-02-08T12:32:48;1.90;99.90
5429;DHT22;2737;52.386;9.980;2023-02-08T12:35:52;1.90;99.90
5429;DHT22;2737;52.386;9.980;2023-02-08T12:38:32;2.00;98.60
5429;DHT22;2737;52.386;9.980;2023-02-08T12:41:25;2.00;97.80
5429;DHT22;2737;52.386;9.980;2023-02-08T12:44:03;2.00;97.80
5429;DHT22;2737;52.386;9.980;2023-02-08T12:46:51;2.10;97.50
5429;DHT22;2737;52.386;9.980;2023-02-08T12:49:49;2.10;98.20
5429;DHT22;2737;52.386;9.980;2023-02-08T12:52:27;2.10;99.70
5429;DHT22;2737;52.386;9.980;2023-02-08T12:54:59;2.10;99.90
5429;DHT22;2737;52.386;9.980;2023-02-08T12:57:30;2.20;99.90
5429;DHT22;2737;52.386;9.980;2023-02-08T13:00:03;2.20;99.90
5429;DHT22;2737;52.386;9.980;2023-02-08T13:02:34;2.20;99.80
5429;DHT22;2737;52.386;9.980;2023-02-08T13:05:12;2.20;99.60
5429;DHT22;2737;52.386;9.980;2023-02-08T13:07:43;2.30;99.00
5429;DHT22;2737;52.386;9.980;2023-02-08T13:10:22;2.20;99.50
5429;DHT22;2737;52.386;9.980;2023-02-08T13:12:56;2.30;99.80
5429;DHT22;2737;52.386;9.980;2023-02-08T13:15:29;2.40;99.90
5429;DHT22;2737;52.386;9.980;2023-02-08T13:18:04;2.30;99.90
5429;DHT22;2737;52.386;9.980;2023-02-08T13:20:40;2.40;99.90
5429;DHT22;2737;52.386;9.980;2023-02-08T13:23:14;2.40;99.90
5429;DHT22;2737;52.386;9.980;2023-02-08T13:25:43;2.50;99.90
5429;DHT22;2737;52.386;9.980;2023-02-08T13:28:17;2.50;99.90
5429;DHT22;2737;52.386;9.980;2023-02-08T13:30:46;2.50;99.90
5429;DHT22;2737;52.386;9.980;2023-02-08T13:33:30;2.50;99.90
5429;DHT22;2737;52.386;9.980;2023-02-08T13:35:59;2.50;99.90
5429;DHT22;2737;52.386;9.980;2023-02-08T13:38:28;2.40;99.90
5429;DHT22;2737;52.386;9.980;2023-02-08T13:41:04;2.50;99.90
5429;DHT22;2737;52.386;9.980;2023-02-08T13:43:37;2.50;99.90
5429;DHT22;2737;52.386;9.980;2023-02-08T13:46:06;2.50;99.90
5429;DHT22;2737;52.386;9.980;2023-02-08T13:48:43;2.50;99.90
5429;DHT22;2737;52.386;9.980;2023-02-08T13:54:23;2.50;99.90
5429;DHT22;2737;52.386;9.980;2023-02-08T13:56:51;2.50;99.90
5429;DHT22;2737;52.386;9.980;2023-02-08T13:59:31;2.40;99.90
5429;DHT22;2737;52.386;9.980;2023-02-08T14:02:27;2.50;99.90
5429;DHT22;2737;52.386;9.980;2023-02-08T14:07:55;2.40;99.90
5429;DHT22;2737;52.386;9.980;2023-02-08T14:10:31;2.40;99.90
5429;DHT22;2737;52.386;9.980;2023-02-08T14:13:04;2.50;99.90
5429;DHT22;2737;52.386;9.980;2023-02-08T14:15:37;2.50;99.90
5429;DHT22;2737;52.386;9.980;2023-02-08T14:18:22;2.50;99.90
5429;DHT22;2737;52.386;9.980;2023-02-08T14:21:04;2.60;99.90
5429;DHT22;2737;52.386;9.980;2023-02-08T14:23:35;2.60;99.90
5429;DHT22;2737;52.386;9.980;2023-02-08T14:26:07;2.60;99.90
5429;DHT22;2737;52.386;9.980;2023-02-08T14:28:37;2.60;99.90
5429;DHT22;2737;52.386;9.980;2023-02-08T14:31:09;2.60;99.90
5429;DHT22;2737;52.386;9.980;2023-02-08T14:33:38;2.60;99.90
5429;DHT22;2737;52.386;9.980;2023-02-08T14:36:19;2.60;99.90
5429;DHT22;2737;52.386;9.980;2023-02-08T14:38:53;2.60;99.90
5429;DHT22;2737;52.386;9.980;2023-02-08T14:41:48;2.60;99.90
5429;DHT22;2737;52.386;9.980;2023-02-08T14:47:51;2.70;99.90
5429;DHT22;2737;52.386;9.980;2023-02-08T14:50:25;2.80;99.90
5429;DHT22;2737;52.386;9.980;2023-02-08T14:52:59;2.80;99.90
5429;DHT22;2737;52.386;9.980;2023-02-08T14:55:30;2.70;99.90
5429;DHT22;2737;52.386;9.980;2023-02-08T14:57:59;2.70;99.90
5429;DHT22;2737;52.386;9.980;2023-02-08T15:00:31;2.70;99.90
5429;DHT22;2737;52.386;9.980;2023-02-08T15:03:03;2.60;99.90
5429;DHT22;2737;52.386;9.980;2023-02-08T15:05:36;2.70;99.90
5429;DHT22;2737;52.386;9.980;2023-02-08T15:08:05;2.60;99.90
5429;DHT22;2737;52.386;9.980;2023-02-08T15:10:32;2.60;99.90
5429;DHT22;2737;52.386;9.980;2023-02-08T15:13:04;2.60;99.90
5429;DHT22;2737;52.386;9.980;2023-02-08T15:15:35;2.60;99.90
5429;DHT22;2737;52.386;9.980;2023-02-08T15:18:13;2.60;99.90
5429;DHT22;2737;52.386;9.980;2023-02-08T15:20:42;2.60;99.90
5429;DHT22;2737;52.386;9.980;2023-02-08T15:23:18;2.60;99.90
5429;DHT22;2737;52.386;9.980;2023-02-08T15:25:54;2.60;99.90
5429;DHT22;2737;52.386;9.980;2023-02-08T15:28:23;2.60;99.90
5429;DHT22;2737;52.386;9.980;2023-02-08T15:30:55;2.50;99.90
5429;DHT22;2737;52.386;9.980;2023-02-08T15:33:24;2.50;99.90
5429;DHT22;2737;52.386;9.980;2023-02-08T15:35:57;2.50;99.90
5429;DHT22;2737;52.386;9.980;2023-02-08T15:38:25;2.50;99.90
5429;DHT22;2737;52.386;9.980;2023-02-08T15:41:02;2.40;99.90
5429;DHT22;2737;52.386;9.980;2023-02-08T15:43:29;2.30;99.90
5429;DHT22;2737;52.386;9.980;2023-02-08T15:45:58;2.30;99.90
5429;DHT22;2737;52.386;9.980;2023-02-08T15:48:27;2.30;99.90
5429;DHT22;2737;52.386;9.980;2023-02-08T15:50:55;2.30;99.90
5429;DHT22;2737;52.386;9.980;2023-02-08T15:53:23;2.20;99.90
5429;DHT22;2737;52.386;9.980;2023-02-08T15:55:54;2.20;99.90
5429;DHT22;2737;52.386;9.980;2023-02-08T15:58:27;2.10;99.90
5429;DHT22;2737;52.386;9.980;2023-02-08T16:00:56;2.10;99.90
5429;DHT22;2737;52.386;9.980;2023-02-08T16:03:28;2.00;99.90
5429;DHT22;2737;52.386;9.980;2023-02-08T16:05:57;1.90;99.90
5429;DHT22;2737;52.386;9.980;2023-02-08T16:08:27;1.90;99.90
5429;DHT22;2737;52.386;9.980;2023-02-08T16:10:57;1.90;99.90
5429;DHT22;2737;52.386;9.980;2023-02-08T16:13:27;1.80;99.90
5429;DHT22;2737;52.386;9.980;2023-02-08T16:15:57;1.80;99.90
5429;DHT22;2737;52.386;9.980;2023-02-08T16:18:42;1.70;99.90
5429;DHT22;2737;52.386;9.980;2023-02-08T16:21:28;1.70;99.90
5429;DHT22;2737;52.386;9.980;2023-02-08T16:24:02;1.60;99.90
5429;DHT22;2737;52.386;9.980;2023-02-08T16:26:33;1.60;99.90
5429;DHT22;2737;52.386;9.980;2023-02-08T16:29:02;1.60;99.90
5429;DHT22;2737;52.386;9.980;2023-02-08T16:31:33;1.50;99.90
5429;DHT22;2737;52.386;9.980;2023-02-08T16:34:04;1.50;99.90
5429;DHT22;2737;52.386;9.980;2023-02-08T16:36:36;1.40;99.90
5429;DHT22;2737;52.386;9.980;2023-02-08T16:39:34;1.30;99.90
5429;DHT22;2737;52.386;9.980;2023-02-08T16:42:04;1.20;99.90
5429;DHT22;2737;52.386;9.980;2023-02-08T16:44:33;1.20;99.90
5429;DHT22;2737;52.386;9.980;2023-02-08T16:47:22;1.10;99.90
5429;DHT22;2737;52.386;9.980;2023-02-08T16:49:50;1.00;99.90
5429;DHT22;2737;52.386;9.980;2023-02-08T16:52:17;0.90;99.90
5429;DHT22;2737;52.386;9.980;2023-02-08T16:54:44;0.80;99.90
5429;DHT22;2737;52.386;9.980;2023-02-08T16:57:11;0.80;99.90
5429;DHT22;2737;52.386;9.980;2023-02-08T16:59:40;0.70;99.90